createdAt,value
2018-11-26T00:04:10.324Z,100481.52
2018-11-26T00:06:40.035Z,100478.87
2018-11-26T00:09:10.884Z,100471.91
2018-11-26T00:11:40.663Z,100475.08
2018-11-26T00:14:10.265Z,100480.23
2018-11-26T00:16:39.198Z,100473.03
2018-11-26T00:19:08.898Z,100467.91
2018-11-26T00:21:37.494Z,100476.75
2018-11-26T00:24:06.665Z,100469.55
2018-11-26T00:26:35.148Z,100465.66
2018-11-26T00:29:03.839Z,100464.05
2018-11-26T00:31:32.626Z,100471.14
2018-11-26T00:34:01.527Z,100465.55
2018-11-26T00:36:30.323Z,100472.42
2018-11-26T00:39:00.460Z,100470.60
2018-11-26T00:41:31.343Z,100460.30
2018-11-26T00:44:01.141Z,100463.52
2018-11-26T00:46:32.690Z,100464.84
2018-11-26T00:49:03.734Z,100460.37
2018-11-26T00:51:32.812Z,100459.39
2018-11-26T00:54:01.455Z,100450.58
2018-11-26T00:56:30.076Z,100453.02
2018-11-26T00:59:01.073Z,100208.31
2018-11-26T01:01:31.576Z,100447.66
2018-11-26T01:04:02.523Z,100439.52
2018-11-26T01:06:31.304Z,100437.44
2018-11-26T01:09:01.811Z,100443.47
2018-11-26T01:11:34.141Z,100444.73
2018-11-26T01:14:05.489Z,100445.62
2018-11-26T01:16:37.407Z,100447.23
2018-11-26T01:21:47.369Z,100448.61
2018-11-26T01:24:16.501Z,100453.47
2018-11-26T01:26:47.545Z,100452.47
2018-11-26T01:29:16.349Z,100458.05
2018-11-26T01:31:46.761Z,100466.02
2018-11-26T01:34:15.656Z,100463.00
2018-11-26T01:36:43.980Z,100460.86
2018-11-26T01:39:13.623Z,100464.93
2018-11-26T01:41:43.998Z,100465.59
2018-11-26T01:44:12.340Z,100469.84
2018-11-26T01:46:41.037Z,100422.55
2018-11-26T01:49:09.617Z,100466.17
2018-11-26T01:54:29.737Z,100469.70
2018-11-26T01:56:58.378Z,100474.44
2018-11-26T01:59:26.730Z,100464.47
2018-11-26T02:01:55.546Z,100469.86
2018-11-26T02:04:24.950Z,100469.09
2018-11-26T02:06:53.289Z,100464.78
2018-11-26T02:09:21.819Z,100470.98
2018-11-26T02:11:50.252Z,100473.23
2018-11-26T02:14:18.770Z,100469.73
2018-11-26T02:16:47.607Z,100463.81
2018-11-26T02:19:15.997Z,100464.54
2018-11-26T02:21:44.388Z,100460.64
2018-11-26T02:24:12.803Z,100464.66
2018-11-26T02:26:41.300Z,100462.66
2018-11-26T02:29:10.063Z,100458.27
2018-11-26T02:31:38.662Z,100457.27
2018-11-26T02:34:09.901Z,100461.89
2018-11-26T02:36:39.218Z,100459.75
2018-11-26T02:39:13.503Z,100467.92
2018-11-26T02:41:45.701Z,100467.68
2018-11-26T02:44:14.103Z,100471.88
2018-11-26T02:49:12.294Z,100472.19
2018-11-26T02:51:40.481Z,100458.34
2018-11-26T02:54:09.165Z,100460.64
2018-11-26T02:56:38.014Z,100460.28
2018-11-26T02:59:07.631Z,100461.38
2018-11-26T03:01:40.133Z,100463.09
2018-11-26T03:04:09.647Z,100455.61
2018-11-26T03:06:38.420Z,100458.47
2018-11-26T03:09:07.933Z,100463.62
2018-11-26T03:11:39.198Z,100460.63
2018-11-26T03:14:17.274Z,100463.50
2018-11-26T03:16:56.462Z,100456.34
2018-11-26T03:19:28.937Z,100460.89
2018-11-26T03:22:02.517Z,100454.69
2018-11-26T03:24:32.009Z,100454.73
2018-11-26T03:27:02.291Z,100448.89
2018-11-26T03:29:33.167Z,100450.50
2018-11-26T03:32:02.688Z,100448.77
2018-11-26T03:34:35.480Z,100449.17
2018-11-26T03:39:41.601Z,100466.12
2018-11-26T03:42:10.277Z,100463.10
2018-11-26T03:44:40.683Z,100468.33
2018-11-26T03:47:09.328Z,100462.33
2018-11-26T03:49:38.325Z,100414.34
2018-11-26T03:52:10.618Z,100466.39
2018-11-26T03:54:40.331Z,100465.36
2018-11-26T03:57:10.235Z,100469.94
2018-11-26T03:59:41.084Z,100473.28
2018-11-26T04:02:10.052Z,100473.44
2018-11-26T04:04:39.280Z,100473.80
2018-11-26T04:07:19.226Z,100474.20
2018-11-26T04:09:47.598Z,100476.92
2018-11-26T04:12:15.965Z,100474.27
2018-11-26T04:14:45.092Z,100474.75
2018-11-26T04:17:13.785Z,100478.09
2018-11-26T04:19:42.166Z,100475.77
2018-11-26T04:22:10.997Z,100474.11
2018-11-26T04:24:39.402Z,100477.09
2018-11-26T04:27:07.814Z,100475.69
2018-11-26T04:29:36.979Z,100472.25
2018-11-26T04:32:05.993Z,100469.81
2018-11-26T04:34:34.748Z,100472.38
2018-11-26T04:37:05.544Z,100477.29
2018-11-26T04:39:34.597Z,100474.64
2018-11-26T04:42:03.435Z,100472.34
2018-11-26T04:44:31.741Z,100465.06
2018-11-26T04:47:00.747Z,100466.88
2018-11-26T04:49:29.323Z,100467.84
2018-11-26T04:51:58.261Z,100466.16
2018-11-26T04:54:26.554Z,100462.60
2018-11-26T04:56:56.260Z,100460.87
2018-11-26T04:59:25.025Z,100463.72
2018-11-26T05:01:53.692Z,100457.02
2018-11-26T05:04:23.310Z,100460.55
2018-11-26T05:06:51.854Z,100463.41
2018-11-26T05:09:23.142Z,100453.16
2018-11-26T05:11:52.189Z,100462.45
2018-11-26T05:16:47.128Z,100459.73
2018-11-26T05:19:15.919Z,100459.50
2018-11-26T05:21:44.170Z,100460.00
2018-11-26T05:24:12.661Z,100453.88
2018-11-26T05:26:42.239Z,100448.89
2018-11-26T05:29:10.709Z,100451.43
2018-11-26T05:31:39.282Z,100451.03
2018-11-26T05:34:11.720Z,100455.20
2018-11-26T05:36:40.293Z,100456.06
2018-11-26T05:39:09.087Z,100453.32
2018-11-26T05:41:37.987Z,100458.63
2018-11-26T05:44:06.972Z,100458.42
2018-11-26T05:46:36.004Z,100460.39
2018-11-26T05:51:45.625Z,100464.66
2018-11-26T05:54:15.973Z,100464.22
2018-11-26T05:56:45.947Z,100456.45
2018-11-26T05:59:15.212Z,100459.19
2018-11-26T06:01:44.762Z,100459.67
2018-11-26T06:04:13.107Z,100470.38
2018-11-26T06:06:41.553Z,100465.91
2018-11-26T06:09:18.483Z,100428.03
2018-11-26T06:11:46.805Z,100471.77
2018-11-26T06:14:19.256Z,100468.39
2018-11-26T06:16:56.171Z,100478.82
2018-11-26T06:19:25.784Z,100478.67
2018-11-26T06:21:56.606Z,100483.25
2018-11-26T06:24:26.845Z,100484.02
2018-11-26T06:26:56.938Z,100484.70
2018-11-26T06:29:26.386Z,100488.20
2018-11-26T06:31:56.879Z,100491.58
2018-11-26T06:34:29.259Z,100492.13
2018-11-26T06:37:02.358Z,100495.81
2018-11-26T06:39:34.083Z,100497.66
2018-11-26T06:42:05.792Z,100495.69
2018-11-26T06:44:36.351Z,100491.66
2018-11-26T06:47:06.462Z,100499.76
2018-11-26T06:49:42.522Z,100505.16
2018-11-26T06:52:11.895Z,100512.03
2018-11-26T06:54:43.271Z,100515.29
2018-11-26T06:57:12.291Z,100519.45
2018-11-26T06:59:42.148Z,100519.63
2018-11-26T07:02:11.675Z,100524.13
2018-11-26T07:04:40.829Z,100515.95
2018-11-26T07:09:16.007Z,100524.84
2018-11-26T07:11:45.427Z,100526.02
2018-11-26T07:14:15.338Z,100529.38
2018-11-26T07:16:45.758Z,100531.30
2018-11-26T07:19:16.335Z,100532.63
2018-11-26T07:21:45.625Z,100535.14
2018-11-26T07:24:37.546Z,100529.23
2018-11-26T07:27:07.398Z,100534.69
2018-11-26T07:29:37.625Z,100536.13
2018-11-26T07:32:07.443Z,100542.40
2018-11-26T07:37:41.400Z,100547.30
2018-11-26T07:40:15.345Z,100547.25
2018-11-26T07:43:49.195Z,100552.75
2018-11-26T07:48:59.813Z,100556.85
2018-11-26T07:51:31.629Z,100564.45
2018-11-26T07:54:02.436Z,100567.17
2018-11-26T07:56:33.680Z,100566.98
2018-11-26T07:59:03.674Z,100568.94
2018-11-26T08:01:34.668Z,100565.11
2018-11-26T08:04:03.258Z,100573.91
2018-11-26T08:06:34.548Z,100574.52
2018-11-26T08:09:03.389Z,100578.45
2018-11-26T08:11:34.022Z,100575.91
2018-11-26T08:14:03.950Z,100590.39
2018-11-26T08:16:37.580Z,100592.47
2018-11-26T08:19:09.953Z,100588.61
2018-11-26T08:21:46.201Z,100586.50
2018-11-26T08:24:13.928Z,100595.36
2018-11-26T08:26:42.781Z,100594.59
2018-11-26T08:29:12.802Z,100599.63
2018-11-26T08:31:49.731Z,100602.36
2018-11-26T08:34:23.987Z,100603.11
2018-11-26T08:37:58.483Z,100612.41
2018-11-26T08:41:36.710Z,100607.16
2018-11-26T08:44:11.653Z,100613.31
2018-11-26T08:46:48.828Z,100623.76
2018-11-26T08:49:24.684Z,100624.84
2018-11-26T08:52:02.129Z,100628.92
2018-11-26T08:54:40.607Z,100626.84
2018-11-26T08:57:22.769Z,100626.66
2018-11-26T08:59:52.405Z,100634.05
2018-11-26T09:02:33.863Z,100634.80
2018-11-26T09:05:08.552Z,100635.05
2018-11-26T09:07:39.129Z,100642.80
2018-11-26T09:11:59.600Z,100575.98
2018-11-26T09:14:42.851Z,100640.24
2018-11-26T09:17:12.404Z,100649.15
2018-11-26T09:19:41.718Z,100657.78
2018-11-26T09:22:15.163Z,100655.62
2018-11-26T09:24:44.257Z,100659.32
2018-11-26T09:27:13.030Z,100662.39
2018-11-26T09:29:42.019Z,100663.41
2018-11-26T09:32:12.112Z,100667.27
2018-11-26T09:34:41.297Z,100669.05
2018-11-26T09:37:30.100Z,100665.14
2018-11-26T09:49:27.148Z,100682.98
2018-11-26T09:51:55.921Z,100687.53
2018-11-26T09:54:26.109Z,100686.91
2018-11-26T09:56:54.174Z,100685.55
2018-11-26T09:59:25.354Z,100682.81
2018-11-26T10:01:56.022Z,100683.30
2018-11-26T10:04:24.863Z,100676.34
2018-11-26T10:06:56.530Z,100685.88
2018-11-26T10:09:32.740Z,100679.20
2018-11-26T10:28:07.601Z,100686.90
2018-11-26T10:33:54.956Z,100680.33
2018-11-26T10:36:32.427Z,100690.06
2018-11-26T10:39:02.732Z,100687.64
2018-11-26T10:41:33.607Z,100681.77
2018-11-26T10:44:05.382Z,100684.19
2018-11-26T10:46:39.379Z,100686.14
2018-11-26T10:49:24.115Z,100687.27
2018-11-26T10:51:54.285Z,100686.58
2018-11-26T10:54:31.790Z,100687.10
2018-11-26T10:57:06.768Z,100684.24
2018-11-26T10:59:40.163Z,100682.75
2018-11-26T11:03:13.991Z,100686.41
2018-11-26T11:05:43.369Z,100685.84
2018-11-26T11:08:18.265Z,100574.45
2018-11-26T11:10:47.948Z,100691.52
2018-11-26T11:13:19.290Z,100691.13
2018-11-26T11:15:49.384Z,100691.37
2018-11-26T11:18:20.803Z,100685.56
2018-11-26T11:25:29.177Z,100690.48
2018-11-26T11:28:07.636Z,100693.15
2018-11-26T11:30:37.764Z,100691.86
2018-11-26T11:38:37.341Z,100693.67
2018-11-26T11:41:08.103Z,100695.69
2018-11-26T11:43:46.337Z,100679.89
2018-11-26T11:46:19.837Z,100678.48
2018-11-26T11:48:48.279Z,100682.34
2018-11-26T11:51:20.010Z,100623.17
2018-11-26T11:53:50.364Z,100672.59
2018-11-26T11:56:26.277Z,100676.14
2018-11-26T11:58:58.395Z,100669.62
2018-11-26T12:01:27.907Z,100674.48
2018-11-26T12:04:04.255Z,100672.16
2018-11-26T12:06:39.086Z,100671.06
2018-11-26T12:09:10.404Z,100676.09
2018-11-26T12:11:51.350Z,100670.67
2018-11-26T12:14:23.219Z,100678.40
2018-11-26T12:16:54.856Z,100674.41
2018-11-26T12:19:26.538Z,100675.86
2018-11-26T12:22:08.293Z,100677.59
2018-11-26T12:24:39.555Z,100680.22
2018-11-26T12:27:22.503Z,100681.22
2018-11-26T12:29:55.232Z,100677.51
2018-11-26T12:32:28.332Z,100680.29
2018-11-26T12:35:05.101Z,100682.55
2018-11-26T12:37:53.206Z,100682.14
2018-11-26T12:40:26.940Z,100682.34
2018-11-26T12:43:07.015Z,100682.34
2018-11-26T12:45:43.080Z,100683.48
2018-11-26T12:51:10.232Z,100683.52
2018-11-26T12:53:42.517Z,100685.20
2018-11-26T12:56:13.509Z,100681.09
2018-11-26T12:59:04.496Z,100679.72
2018-11-26T13:01:42.141Z,100680.20
2018-11-26T13:04:20.597Z,100679.93
2018-11-26T13:07:03.030Z,100680.25
2018-11-26T13:09:40.615Z,100681.86
2018-11-26T13:14:42.666Z,100681.41
2018-11-26T13:17:12.870Z,100682.95
2018-11-26T13:19:46.285Z,100676.78
2018-11-26T13:22:16.324Z,100674.73
2018-11-26T13:24:49.581Z,100679.24
2018-11-26T13:27:20.940Z,100676.59
2018-11-26T13:29:53.423Z,100673.33
2018-11-26T13:32:30.234Z,100675.98
2018-11-26T13:35:04.380Z,100684.73
2018-11-26T13:37:34.462Z,100680.13
2018-11-26T13:40:11.116Z,100684.03
2018-11-26T13:42:48.612Z,100681.94
2018-11-26T13:45:31.153Z,100689.16
2018-11-26T13:48:20.999Z,100691.61
2018-11-26T13:50:53.799Z,100697.02
2018-11-26T13:53:26.489Z,100700.20
2018-11-26T13:59:02.551Z,100698.95
2018-11-26T14:01:35.792Z,100700.16
2018-11-26T14:04:22.631Z,100700.55
2018-11-26T14:07:06.512Z,100702.81
2018-11-26T14:09:39.344Z,100701.16
2018-11-26T14:12:26.007Z,100705.63
2018-11-26T14:15:06.908Z,100709.77
2018-11-26T14:18:01.686Z,100706.52
2018-11-26T14:20:35.688Z,100703.97
2018-11-26T14:23:09.998Z,100708.80
2018-11-26T14:25:39.196Z,100719.23
2018-11-26T14:28:07.645Z,100715.21
2018-11-26T14:33:41.539Z,100716.59
2018-11-26T14:36:12.321Z,100718.20
2018-11-26T14:38:47.317Z,100723.32
2018-11-26T14:41:19.482Z,100723.12
2018-11-26T14:49:51.945Z,100727.08
2018-11-26T14:52:22.046Z,100732.13
2018-11-26T14:54:54.895Z,100730.55
2018-11-26T14:57:28.879Z,100730.01
2018-11-26T15:02:36.541Z,100733.52
2018-11-26T15:05:07.491Z,100738.37
2018-11-26T15:07:39.787Z,100740.06
2018-11-26T15:10:09.153Z,100744.53
2018-11-26T15:12:46.258Z,100739.25
2018-11-26T15:15:21.345Z,100749.78
2018-11-26T15:17:55.426Z,100743.14
2018-11-26T15:26:14.298Z,100760.83
2018-11-26T15:28:47.488Z,100763.99
2018-11-26T15:31:19.598Z,100758.33
2018-11-26T15:33:51.959Z,100762.34
2018-11-26T15:36:23.869Z,100753.65
2018-11-26T15:38:54.007Z,100759.81
2018-11-26T15:41:27.985Z,100767.44
2018-11-26T15:43:59.475Z,100766.27
2018-11-26T15:46:29.750Z,100771.08
2018-11-26T15:48:59.259Z,100764.95
2018-11-26T15:51:30.095Z,100765.81
2018-11-26T15:56:54.262Z,100767.93
2018-11-26T15:59:28.050Z,100771.44
2018-11-26T16:01:57.224Z,100771.81
2018-11-26T16:04:31.934Z,100772.66
2018-11-26T16:07:05.135Z,100777.13
2018-11-26T16:09:34.253Z,100774.73
2018-11-26T16:12:12.193Z,100771.83
2018-11-26T16:14:41.748Z,100779.58
2018-11-26T16:17:11.438Z,100778.58
2018-11-26T16:19:45.015Z,100736.77
2018-11-26T16:25:05.429Z,100793.66
2018-11-26T16:33:44.219Z,100788.39
2018-11-26T16:36:15.402Z,100784.27
2018-11-26T16:38:45.324Z,100785.11
2018-11-26T16:41:18.197Z,100793.33
2018-11-26T16:43:59.745Z,100791.63
2018-11-26T16:46:32.792Z,100792.37
2018-11-26T16:51:47.361Z,100803.78
2018-11-26T16:56:27.119Z,100806.23
2018-11-26T16:59:06.687Z,100808.62
2018-11-26T17:01:36.803Z,100815.88
2018-11-26T17:04:16.242Z,100817.21
2018-11-26T17:06:45.843Z,100819.13
2018-11-26T17:09:16.783Z,100815.28
2018-11-26T17:12:19.838Z,100819.38
2018-11-26T17:14:53.026Z,100825.52
2018-11-26T17:17:24.577Z,100828.55
2018-11-26T17:19:55.345Z,100832.27
2018-11-26T17:22:26.163Z,100836.25
2018-11-26T17:25:08.073Z,100831.31
2018-11-26T17:27:54.256Z,100838.17
2018-11-26T17:30:29.856Z,100842.05
2018-11-26T17:33:07.563Z,100847.70
2018-11-26T17:35:51.938Z,100850.84
2018-11-26T17:38:31.796Z,100853.27
2018-11-26T17:41:04.245Z,100858.33
2018-11-26T17:46:16.603Z,100862.20
2018-11-26T17:48:52.445Z,100861.73
2018-11-26T17:57:05.529Z,100868.43
2018-11-26T18:02:38.762Z,100866.21
2018-11-26T18:05:26.597Z,100869.22
2018-11-26T18:08:05.476Z,100882.76
2018-11-26T18:10:52.254Z,100889.16
2018-11-26T18:13:28.793Z,100884.47
2018-11-26T18:16:12.433Z,100892.53
2018-11-26T18:18:53.581Z,100894.55
2018-11-26T18:21:40.421Z,100892.69
2018-11-26T18:24:16.129Z,100898.00
2018-11-26T18:26:54.476Z,100902.45
2018-11-26T18:32:14.771Z,100907.99
2018-11-26T18:35:12.916Z,100910.44
2018-11-26T18:37:49.981Z,100912.80
2018-11-26T18:40:23.206Z,100916.53
2018-11-26T18:46:21.779Z,100922.55
2018-11-26T18:48:58.887Z,100924.83
2018-11-26T18:51:39.106Z,100935.06
2018-11-26T18:54:15.529Z,100934.90
2018-11-26T18:56:53.035Z,100939.08
2018-11-26T18:59:37.218Z,100943.56
2018-11-26T19:02:34.564Z,100944.02
2018-11-26T19:05:08.083Z,100945.34
2018-11-26T19:07:42.462Z,100952.71
2018-11-26T19:10:25.322Z,100952.67
2018-11-26T19:13:13.137Z,100949.88
2018-11-26T19:15:51.771Z,100949.23
2018-11-26T19:21:53.620Z,100945.52
2018-11-26T19:24:27.592Z,100953.50
2018-11-26T19:27:04.375Z,100958.28
2018-11-26T19:29:38.405Z,100957.80
2018-11-26T19:32:14.903Z,100964.38
2018-11-26T19:34:45.067Z,100968.64
2018-11-26T19:37:21.868Z,100975.06
2018-11-26T19:40:19.062Z,100979.98
2018-11-26T19:42:57.188Z,100977.34
2018-11-26T19:45:29.095Z,100984.56
2018-11-26T19:48:06.111Z,100977.56
2018-11-26T19:53:30.222Z,100987.69
2018-11-26T19:56:03.852Z,100988.59
2018-11-26T19:58:34.836Z,100992.47
2018-11-26T20:01:14.120Z,100987.26
2018-11-26T20:03:44.637Z,100990.25
2018-11-26T20:06:19.484Z,100995.50
2018-11-26T20:08:58.165Z,101001.36
2018-11-26T20:11:33.163Z,101002.64
2018-11-26T20:14:00.185Z,101004.06
2018-11-26T20:16:39.165Z,101005.47
2018-11-26T20:19:16.931Z,101002.34
2018-11-26T20:21:50.138Z,101007.08
2018-11-26T20:24:21.338Z,101010.77
2018-11-26T20:26:56.682Z,101023.43
2018-11-26T20:29:39.692Z,101017.71
2018-11-26T20:32:13.546Z,101021.08
2018-11-26T20:34:44.243Z,101024.48
2018-11-26T20:37:15.897Z,101028.27
2018-11-26T20:39:45.285Z,101027.65
2018-11-26T20:42:25.790Z,101023.08
2018-11-26T20:44:57.543Z,101028.50
2018-11-26T20:47:32.143Z,101028.50
2018-11-26T20:55:34.730Z,101039.29
2018-11-26T20:58:06.209Z,101039.84
2018-11-26T21:00:37.549Z,101047.36
2018-11-26T21:03:13.811Z,101057.64
2018-11-26T21:05:44.979Z,101056.03
2018-11-26T21:08:16.495Z,101056.00
2018-11-26T21:10:47.203Z,101050.84
2018-11-26T21:13:19.340Z,101054.94
2018-11-26T21:15:49.971Z,101050.23
2018-11-26T21:18:22.832Z,101055.36
2018-11-26T21:20:52.702Z,101056.78
2018-11-26T21:23:24.090Z,101056.20
2018-11-26T21:25:53.735Z,101062.86
2018-11-26T21:28:23.606Z,101061.98
2018-11-26T21:30:54.285Z,101061.66
2018-11-26T21:33:24.141Z,101067.04
2018-11-26T21:35:53.487Z,101068.25
2018-11-26T21:38:24.823Z,101076.86
2018-11-26T21:41:01.211Z,101071.55
2018-11-26T21:43:32.566Z,101072.02
2018-11-26T21:46:02.307Z,101078.18
2018-11-26T21:48:31.795Z,101077.42
2018-11-26T21:51:13.414Z,101074.34
2018-11-26T21:53:47.223Z,101068.16
2018-11-26T21:56:25.071Z,101076.20
2018-11-26T21:58:59.483Z,101077.11
2018-11-26T22:01:32.470Z,101075.44
2018-11-26T22:04:09.715Z,101077.23
2018-11-26T22:06:53.436Z,101083.64
2018-11-26T22:09:39.237Z,101085.27
2018-11-26T22:14:51.382Z,101088.56
2018-11-26T22:17:27.874Z,101090.47
2018-11-26T22:20:00.006Z,101092.09
2018-11-26T22:22:37.486Z,101093.69
2018-11-26T22:25:14.867Z,101093.84
2018-11-26T22:27:45.921Z,101093.44
2018-11-26T22:30:18.123Z,101097.61
2018-11-26T22:32:49.195Z,101093.95
2018-11-26T22:35:19.453Z,101094.64
2018-11-26T22:37:49.154Z,101102.89
2018-11-26T22:40:21.453Z,101107.87
2018-11-26T22:42:52.307Z,101112.13
2018-11-26T22:45:34.798Z,101110.86
2018-11-26T22:48:18.821Z,101121.20
2018-11-26T22:51:15.130Z,101118.48
2018-11-26T22:56:34.917Z,101121.17
2018-11-26T22:59:11.272Z,101118.17
2018-11-26T23:04:25.815Z,101132.91
2018-11-26T23:07:00.631Z,101132.43
2018-11-26T23:09:40.670Z,101132.41
2018-11-26T23:12:15.060Z,101125.32
2018-11-26T23:14:46.057Z,101137.61
2018-11-26T23:20:04.206Z,101134.95
2018-11-26T23:22:34.437Z,101143.33
2018-11-26T23:25:03.931Z,101146.55
2018-11-26T23:27:32.942Z,101141.99
2018-11-26T23:30:08.359Z,101147.16
2018-11-26T23:32:39.579Z,101143.27
2018-11-26T23:35:11.523Z,101139.25
2018-11-26T23:37:52.500Z,101143.45
2018-11-26T23:40:22.718Z,101133.95
2018-11-26T23:42:54.483Z,101140.57
2018-11-26T23:45:24.447Z,101144.39
2018-11-26T23:47:53.675Z,101145.39
2018-11-26T23:50:23.806Z,101146.63
2018-11-26T23:52:52.890Z,101144.83
2018-11-26T23:55:23.002Z,101154.34
2018-11-26T23:57:53.775Z,101146.19
